createdAt,value
2019-04-10T00:02:23.783Z,101048.39
2019-04-10T00:04:53.972Z,101052.36
2019-04-10T00:07:23.951Z,101052.41
2019-04-10T00:09:55.058Z,101055.38
2019-04-10T00:12:25.470Z,101054.05
2019-04-10T00:14:55.476Z,101051.59
2019-04-10T00:17:25.466Z,101053.45
2019-04-10T00:19:56.023Z,101055.08
2019-04-10T00:22:26.363Z,101064.08
2019-04-10T00:24:56.680Z,101057.47
2019-04-10T00:27:26.667Z,101066.46
2019-04-10T00:29:56.674Z,101068.51
2019-04-10T00:32:27.855Z,101072.34
2019-04-10T00:34:58.201Z,101069.62
2019-04-10T00:37:30.257Z,101075.14
2019-04-10T00:39:59.858Z,101077.07
2019-04-10T00:42:29.827Z,101070.68
2019-04-10T00:44:59.819Z,101075.28
2019-04-10T00:47:30.863Z,101069.96
2019-04-10T00:50:02.392Z,101069.40
2019-04-10T00:52:32.487Z,101065.34
2019-04-10T00:55:03.567Z,101066.67
2019-04-10T00:57:33.879Z,101065.10
2019-04-10T01:00:04.364Z,101061.31
2019-04-10T01:02:34.559Z,101062.42
2019-04-10T01:05:05.184Z,101062.75
2019-04-10T01:07:39.822Z,101058.59
2019-04-10T01:10:08.627Z,101061.88
2019-04-10T01:12:38.610Z,101056.23
2019-04-10T01:15:08.612Z,101062.84
2019-04-10T01:17:38.590Z,101062.19
2019-04-10T01:20:09.122Z,101063.53
2019-04-10T01:22:39.336Z,101064.96
2019-04-10T01:25:10.327Z,101066.82
2019-04-10T01:27:41.164Z,101064.09
2019-04-10T01:30:11.551Z,101061.92
2019-04-10T01:32:41.898Z,101060.16
2019-04-10T01:35:11.996Z,101055.44
2019-04-10T01:37:49.427Z,101057.66
2019-04-10T01:40:14.960Z,101055.89
2019-04-10T01:42:58.999Z,101064.31
2019-04-10T01:45:17.486Z,101057.17
2019-04-10T01:47:48.956Z,101060.99
2019-04-10T01:50:20.032Z,101060.99
2019-04-10T01:52:50.199Z,101053.24
2019-04-10T01:55:25.807Z,101053.66
2019-04-10T01:57:52.696Z,101059.84
2019-04-10T02:00:24.462Z,101052.23
2019-04-10T02:02:54.432Z,101054.97
2019-04-10T02:05:24.854Z,101053.63
2019-04-10T02:08:05.700Z,101054.52
2019-04-10T02:10:26.554Z,101050.53
2019-04-10T02:12:56.598Z,101044.47
2019-04-10T02:15:26.589Z,101051.11
2019-04-10T02:17:57.097Z,101053.08
2019-04-10T02:20:27.723Z,101048.78
2019-04-10T02:22:58.211Z,101050.36
2019-04-10T02:25:28.487Z,101043.30
2019-04-10T02:27:58.595Z,101045.38
2019-04-10T02:30:30.222Z,101048.44
2019-04-10T02:33:02.051Z,101049.31
2019-04-10T02:35:33.862Z,101051.96
2019-04-10T02:38:22.298Z,101046.32
2019-04-10T02:40:37.326Z,101047.20
2019-04-10T02:43:08.479Z,101047.09
2019-04-10T02:45:40.364Z,101046.27
2019-04-10T02:48:12.156Z,101050.30
2019-04-10T02:50:42.988Z,101051.59
2019-04-10T02:53:13.271Z,101048.89
2019-04-10T02:55:43.313Z,101054.48
2019-04-10T02:58:14.323Z,101050.29
2019-04-10T03:00:46.263Z,101058.35
2019-04-10T03:03:16.115Z,101051.53
2019-04-10T03:05:46.660Z,101058.98
2019-04-10T03:08:17.343Z,101062.55
2019-04-10T03:10:53.382Z,101068.63
2019-04-10T03:13:19.797Z,101060.13
2019-04-10T03:15:51.420Z,101069.69
2019-04-10T03:18:21.538Z,101070.66
2019-04-10T03:20:51.493Z,101071.27
2019-04-10T03:23:21.455Z,101066.93
2019-04-10T03:25:51.437Z,101069.03
2019-04-10T03:28:21.425Z,101066.86
2019-04-10T03:30:51.435Z,101072.38
2019-04-10T03:33:27.544Z,101074.75
2019-04-10T03:35:56.973Z,101076.04
2019-04-10T03:38:27.222Z,101075.20
2019-04-10T03:40:57.309Z,101076.28
2019-04-10T03:43:27.886Z,101080.45
2019-04-10T03:45:59.113Z,101084.44
2019-04-10T03:48:29.389Z,101089.50
2019-04-10T03:51:00.468Z,101082.58
2019-04-10T03:53:30.608Z,101083.98
2019-04-10T03:56:01.198Z,101086.04
2019-04-10T03:58:31.558Z,101087.91
2019-04-10T04:01:02.679Z,101087.51
2019-04-10T04:03:32.993Z,101085.69
2019-04-10T04:06:03.614Z,101094.55
2019-04-10T04:08:33.641Z,101096.54
2019-04-10T04:11:03.627Z,101098.08
2019-04-10T04:13:33.610Z,101099.89
2019-04-10T04:16:03.594Z,101103.59
2019-04-10T04:18:33.579Z,101097.61
2019-04-10T04:21:03.567Z,101092.08
2019-04-10T04:23:34.047Z,101098.30
2019-04-10T04:26:05.109Z,101098.08
2019-04-10T04:28:36.207Z,101105.53
2019-04-10T04:31:07.377Z,101102.42
2019-04-10T04:33:37.575Z,101105.66
2019-04-10T04:36:08.205Z,101108.82
2019-04-10T04:38:38.910Z,101109.52
2019-04-10T04:41:09.091Z,101112.69
2019-04-10T04:43:39.218Z,101110.94
2019-04-10T04:46:12.018Z,101108.98
2019-04-10T04:48:43.137Z,101116.32
2019-04-10T04:51:13.410Z,101111.89
2019-04-10T04:53:44.125Z,101107.95
2019-04-10T04:56:14.160Z,101119.36
2019-04-10T04:58:44.135Z,101122.35
2019-04-10T05:01:14.701Z,101122.42
2019-04-10T05:03:44.766Z,101124.21
2019-04-10T05:06:14.693Z,101126.99
2019-04-10T05:08:44.660Z,101124.59
2019-04-10T05:11:14.592Z,101125.26
2019-04-10T05:13:44.723Z,101129.69
2019-04-10T05:16:14.684Z,101130.12
2019-04-10T05:18:45.664Z,101138.92
2019-04-10T05:21:16.960Z,101135.34
2019-04-10T05:23:47.152Z,101144.05
2019-04-10T05:26:17.073Z,101141.27
2019-04-10T05:28:47.053Z,101143.48
2019-04-10T05:31:17.235Z,101148.88
2019-04-10T05:33:47.254Z,101155.97
2019-04-10T05:36:17.372Z,101152.97
2019-04-10T05:38:48.245Z,101146.49
2019-04-10T05:41:18.270Z,101150.32
2019-04-10T05:43:48.890Z,101153.67
2019-04-10T05:46:18.971Z,101148.78
2019-04-10T05:48:49.138Z,101149.89
2019-04-10T05:51:19.608Z,101151.78
2019-04-10T05:53:52.284Z,101155.94
2019-04-10T05:56:22.413Z,101155.23
2019-04-10T05:58:52.732Z,101151.09
2019-04-10T06:01:33.213Z,101154.28
2019-04-10T06:03:54.621Z,101151.09
2019-04-10T06:06:24.661Z,101149.16
2019-04-10T06:08:54.598Z,101153.52
2019-04-10T06:11:24.714Z,101154.66
2019-04-10T06:13:54.811Z,101153.02
2019-04-10T06:16:26.076Z,101149.28
2019-04-10T06:18:56.138Z,101149.61
2019-04-10T06:21:27.091Z,101149.01
2019-04-10T06:23:58.337Z,101156.97
2019-04-10T06:26:28.382Z,101151.23
2019-04-10T06:28:58.967Z,101155.97
2019-04-10T06:31:29.093Z,101152.14
2019-04-10T06:33:59.043Z,101143.20
2019-04-10T06:36:29.216Z,101153.92
2019-04-10T06:39:00.298Z,101160.09
2019-04-10T06:41:30.593Z,101161.48
2019-04-10T06:44:01.449Z,101160.18
2019-04-10T06:46:32.623Z,101158.52
2019-04-10T06:49:03.180Z,101160.72
2019-04-10T06:51:33.569Z,101159.97
2019-04-10T06:54:08.095Z,101165.71
2019-04-10T06:56:35.474Z,101161.79
2019-04-10T06:59:06.567Z,101156.05
2019-04-10T07:01:47.212Z,101154.54
2019-04-10T07:04:09.825Z,101153.03
2019-04-10T07:06:53.993Z,101160.45
2019-04-10T07:09:13.819Z,101156.21
2019-04-10T07:11:44.886Z,101159.98
2019-04-10T07:14:14.880Z,101155.13
2019-04-10T07:16:44.891Z,101158.67
2019-04-10T07:19:15.732Z,101169.31
2019-04-10T07:21:47.073Z,101164.23
2019-04-10T07:24:17.227Z,101167.30
2019-04-10T07:26:49.289Z,101160.25
2019-04-10T07:29:21.079Z,101163.44
2019-04-10T07:31:50.915Z,101165.06
2019-04-10T07:34:23.469Z,101161.56
2019-04-10T07:36:53.787Z,101156.56
2019-04-10T07:39:28.085Z,101162.50
2019-04-10T07:41:55.791Z,101158.20
2019-04-10T07:44:25.719Z,101162.68
2019-04-10T07:46:58.233Z,101165.14
2019-04-10T07:49:30.765Z,101162.19
2019-04-10T07:51:59.080Z,101165.13
2019-04-10T07:54:29.034Z,101165.65
2019-04-10T07:56:59.928Z,101162.63
2019-04-10T07:59:29.961Z,101172.02
2019-04-10T08:02:00.094Z,101169.52
2019-04-10T08:04:31.066Z,101171.28
2019-04-10T08:07:01.138Z,101175.68
2019-04-10T08:09:31.097Z,101177.02
2019-04-10T08:12:01.095Z,101171.75
2019-04-10T08:14:31.519Z,101174.82
2019-04-10T08:17:01.622Z,101180.94
2019-04-10T08:19:32.748Z,101176.58
2019-04-10T08:22:03.664Z,101177.48
2019-04-10T08:24:34.402Z,101178.33
2019-04-10T08:27:05.341Z,101180.94
2019-04-10T08:29:36.387Z,101183.12
2019-04-10T08:32:07.537Z,101175.32
2019-04-10T08:34:37.858Z,101182.42
2019-04-10T08:37:08.171Z,101182.89
2019-04-10T08:39:43.769Z,101181.55
2019-04-10T08:42:10.665Z,101186.73
2019-04-10T08:44:40.857Z,101188.58
2019-04-10T08:47:11.045Z,101185.52
2019-04-10T08:49:41.388Z,101182.96
2019-04-10T08:52:12.258Z,101182.48
2019-04-10T08:54:43.028Z,101182.47
2019-04-10T08:57:13.723Z,101180.30
2019-04-10T08:59:44.534Z,101184.62
2019-04-10T09:02:15.384Z,101170.70
2019-04-10T09:04:45.363Z,101176.88
2019-04-10T09:07:15.865Z,101180.44
2019-04-10T09:09:46.039Z,101181.66
2019-04-10T09:12:16.017Z,101176.83
2019-04-10T09:14:46.240Z,101169.11
2019-04-10T09:17:17.457Z,101173.47
2019-04-10T09:19:47.436Z,101169.99
2019-04-10T09:22:17.427Z,101172.63
2019-04-10T09:24:47.385Z,101172.17
2019-04-10T09:27:17.378Z,101172.61
2019-04-10T09:29:48.385Z,101176.54
2019-04-10T09:32:18.594Z,101169.55
2019-04-10T09:34:48.565Z,101165.21
2019-04-10T09:37:18.755Z,101170.45
2019-04-10T09:39:51.732Z,101171.75
2019-04-10T09:42:21.489Z,101163.48
2019-04-10T09:44:52.811Z,101155.17
2019-04-10T09:47:22.838Z,101160.87
2019-04-10T09:49:53.615Z,101155.20
2019-04-10T09:52:23.774Z,101158.66
2019-04-10T09:54:53.790Z,101153.44
2019-04-10T09:57:24.567Z,101162.16
2019-04-10T09:59:54.645Z,101154.73
2019-04-10T10:02:25.267Z,101156.88
2019-04-10T10:04:55.620Z,101152.11
2019-04-10T10:07:26.342Z,101156.92
2019-04-10T10:09:59.275Z,101159.97
2019-04-10T10:12:28.164Z,101155.19
2019-04-10T10:14:58.929Z,101149.09
2019-04-10T10:17:28.910Z,101148.63
2019-04-10T10:19:59.531Z,101155.16
2019-04-10T10:22:30.910Z,101146.89
2019-04-10T10:25:01.305Z,101147.75
2019-04-10T10:27:32.247Z,101147.30
2019-04-10T10:30:02.642Z,101152.98
2019-04-10T10:32:33.056Z,101149.05
2019-04-10T10:35:03.690Z,101161.71
2019-04-10T10:37:34.575Z,101157.32
2019-04-10T10:40:08.373Z,101150.78
2019-04-10T10:42:40.670Z,101157.23
2019-04-10T10:45:12.368Z,101149.89
2019-04-10T10:47:42.477Z,101151.55
2019-04-10T10:50:13.113Z,101154.25
2019-04-10T10:52:43.824Z,101159.09
2019-04-10T10:55:14.229Z,101155.17
2019-04-10T10:57:44.316Z,101158.22
2019-04-10T11:00:16.861Z,101160.80
2019-04-10T11:02:47.014Z,101156.42
2019-04-10T11:05:17.084Z,101154.61
2019-04-10T11:07:47.157Z,101148.95
2019-04-10T11:10:21.830Z,101147.16
2019-04-10T11:12:48.860Z,101156.30
2019-04-10T11:15:18.820Z,101144.92
2019-04-10T11:17:50.042Z,101148.52
2019-04-10T11:20:20.467Z,101157.69
2019-04-10T11:22:50.511Z,101154.20
2019-04-10T11:25:22.056Z,101148.55
2019-04-10T11:27:52.227Z,101151.59
2019-04-10T11:30:22.537Z,101142.02
2019-04-10T11:32:52.644Z,101151.56
2019-04-10T11:35:24.247Z,101141.89
2019-04-10T11:37:59.039Z,101142.85
2019-04-10T11:40:27.842Z,101139.27
2019-04-10T11:43:00.695Z,101134.03
2019-04-10T11:45:39.318Z,101130.61
2019-04-10T11:48:02.602Z,101144.53
2019-04-10T11:50:34.590Z,101148.39
2019-04-10T11:53:04.561Z,101145.83
2019-04-10T11:55:43.163Z,101144.05
2019-04-10T11:58:08.061Z,101140.17
2019-04-10T12:00:50.751Z,101144.09
2019-04-10T12:03:15.908Z,101143.94
2019-04-10T12:05:49.103Z,101145.72
2019-04-10T12:08:45.268Z,101148.03
2019-04-10T12:11:08.706Z,101144.95
2019-04-10T12:13:22.060Z,101146.23
2019-04-10T12:15:52.613Z,101144.97
2019-04-10T12:18:22.735Z,101151.53
2019-04-10T12:20:53.602Z,101151.94
2019-04-10T12:23:23.654Z,101157.22
2019-04-10T12:25:53.677Z,101157.12
2019-04-10T12:28:23.685Z,101148.87
2019-04-10T12:30:53.644Z,101153.31
2019-04-10T12:33:23.629Z,101153.72
2019-04-10T12:35:54.094Z,101152.34
2019-04-10T12:38:24.581Z,101154.09
2019-04-10T12:40:55.581Z,101148.39
2019-04-10T12:43:25.952Z,101150.95
2019-04-10T12:45:56.881Z,101146.89
2019-04-10T12:48:27.016Z,101147.30
2019-04-10T12:50:57.161Z,101150.02
2019-04-10T12:53:27.516Z,101142.59
2019-04-10T12:55:57.812Z,101138.19
2019-04-10T12:58:28.887Z,101145.68
2019-04-10T13:00:59.009Z,101140.06
2019-04-10T13:03:29.399Z,101138.78
2019-04-10T13:05:59.794Z,101140.91
2019-04-10T13:08:48.339Z,101138.29
2019-04-10T13:11:02.557Z,101135.70
2019-04-10T13:13:33.745Z,101148.27
2019-04-10T13:16:03.969Z,101137.41
2019-04-10T13:18:33.952Z,101136.51
2019-04-10T13:21:04.294Z,101134.73
2019-04-10T13:23:35.061Z,101129.73
2019-04-10T13:26:07.608Z,101126.13
2019-04-10T13:28:37.331Z,101130.55
2019-04-10T13:31:07.296Z,101130.86
2019-04-10T13:33:38.634Z,101130.61
2019-04-10T13:36:08.577Z,101136.33
2019-04-10T13:38:38.556Z,101128.81
2019-04-10T13:41:08.516Z,101138.42
2019-04-10T13:43:38.513Z,101128.37
2019-04-10T13:46:08.845Z,101141.09
2019-04-10T13:48:39.707Z,101131.13
2019-04-10T13:51:10.892Z,101136.84
2019-04-10T13:53:41.899Z,101144.38
2019-04-10T13:56:12.842Z,101143.56
2019-04-10T13:58:43.001Z,101140.88
2019-04-10T14:01:15.470Z,101147.08
2019-04-10T14:03:46.843Z,101145.77
2019-04-10T14:06:17.290Z,101141.40
2019-04-10T14:09:04.482Z,101143.56
2019-04-10T14:11:19.377Z,101148.87
2019-04-10T14:13:49.466Z,101153.25
2019-04-10T14:16:20.287Z,101149.73
2019-04-10T14:18:50.877Z,101159.33
2019-04-10T14:21:20.858Z,101152.37
2019-04-10T14:23:51.437Z,101154.53
2019-04-10T14:26:46.764Z,101150.55
2019-04-10T14:29:14.376Z,101151.30
2019-04-10T14:31:49.014Z,101143.03
2019-04-10T14:34:20.295Z,101153.11
2019-04-10T14:36:50.864Z,101156.20
2019-04-10T14:39:21.442Z,101154.48
2019-04-10T14:41:53.938Z,101158.38
2019-04-10T14:44:24.029Z,101156.26
2019-04-10T14:46:53.999Z,101166.66
2019-04-10T14:49:24.890Z,101162.37
2019-04-10T14:51:54.924Z,101169.77
2019-04-10T14:54:26.022Z,101159.82
2019-04-10T14:56:56.831Z,101156.74
2019-04-10T14:59:26.907Z,101165.10
2019-04-10T15:01:57.929Z,101165.12
2019-04-10T15:04:28.898Z,101169.52
2019-04-10T15:06:59.111Z,101166.94
2019-04-10T15:09:29.083Z,101167.80
2019-04-10T15:11:59.405Z,101174.33
2019-04-10T15:14:30.128Z,101177.41
2019-04-10T15:17:04.387Z,101171.27
2019-04-10T15:19:32.792Z,101174.30
2019-04-10T15:22:03.209Z,101167.30
2019-04-10T15:24:33.386Z,101173.85
2019-04-10T15:27:04.787Z,101171.67
2019-04-10T15:29:34.953Z,101179.09
2019-04-10T15:32:06.336Z,101178.65
2019-04-10T15:34:37.424Z,101177.73
2019-04-10T15:37:08.786Z,101181.23
2019-04-10T15:39:40.633Z,101179.08
2019-04-10T15:42:10.601Z,101179.48
2019-04-10T15:44:40.866Z,101184.31
2019-04-10T15:47:18.201Z,101190.02
2019-04-10T15:49:42.891Z,101191.77
2019-04-10T15:52:12.895Z,101196.98
2019-04-10T15:54:43.411Z,101205.27
2019-04-10T15:57:14.256Z,101197.45
2019-04-10T15:59:44.418Z,101202.25
2019-04-10T16:02:15.373Z,101203.11
2019-04-10T16:04:45.609Z,101206.17
2019-04-10T16:07:16.216Z,101202.26
2019-04-10T16:09:51.677Z,101204.90
2019-04-10T16:12:20.737Z,101212.73
2019-04-10T16:14:50.818Z,101205.77
2019-04-10T16:17:37.693Z,101208.38
2019-04-10T16:20:13.299Z,101211.88
2019-04-10T16:22:44.953Z,101214.49
2019-04-10T16:25:22.276Z,101209.69
2019-04-10T16:27:53.583Z,101210.14
2019-04-10T16:30:27.796Z,101214.50
2019-04-10T16:32:58.678Z,101215.81
2019-04-10T16:35:29.604Z,101214.48
2019-04-10T16:38:00.463Z,101223.21
2019-04-10T16:40:30.439Z,101221.46
2019-04-10T16:43:01.455Z,101212.75
2019-04-10T16:45:32.702Z,101220.62
2019-04-10T16:48:02.980Z,101225.40
2019-04-10T16:50:34.076Z,101224.07
2019-04-10T16:53:05.524Z,101231.05
2019-04-10T16:55:36.660Z,101228.43
2019-04-10T16:58:07.604Z,101236.69
2019-04-10T17:00:37.895Z,101229.70
2019-04-10T17:03:07.856Z,101232.73
2019-04-10T17:05:38.151Z,101230.53
2019-04-10T17:08:08.135Z,101230.94
2019-04-10T17:10:38.689Z,101233.10
2019-04-10T17:13:09.006Z,101237.44
2019-04-10T17:15:39.951Z,101237.86
2019-04-10T17:18:10.812Z,101241.35
2019-04-10T17:20:41.034Z,101247.36
2019-04-10T17:23:12.281Z,101241.70
2019-04-10T17:25:42.475Z,101251.68
2019-04-10T17:28:12.476Z,101252.08
2019-04-10T17:30:42.515Z,101254.25
2019-04-10T17:33:13.147Z,101252.89
2019-04-10T17:35:43.548Z,101252.83
2019-04-10T17:38:14.232Z,101256.28
2019-04-10T17:40:50.916Z,101263.16
2019-04-10T17:43:16.879Z,101262.69
2019-04-10T17:45:47.027Z,101269.16
2019-04-10T17:48:17.780Z,101264.81
2019-04-10T17:50:48.105Z,101272.11
2019-04-10T17:53:18.542Z,101270.77
2019-04-10T17:55:49.669Z,101283.36
2019-04-10T17:58:19.746Z,101280.70
2019-04-10T18:00:52.015Z,101288.13
2019-04-10T18:03:51.715Z,101284.16
2019-04-10T18:06:28.777Z,101288.02
2019-04-10T18:08:51.980Z,101295.41
2019-04-10T18:11:24.465Z,101296.22
2019-04-10T18:13:56.589Z,101301.84
2019-04-10T18:16:27.984Z,101301.78
2019-04-10T18:19:00.194Z,101305.25
2019-04-10T18:21:30.877Z,101308.68
2019-04-10T18:24:02.116Z,101312.55
2019-04-10T18:26:36.043Z,101316.06
2019-04-10T18:29:09.960Z,101320.36
2019-04-10T18:31:41.075Z,101323.35
2019-04-10T18:34:14.121Z,101325.46
2019-04-10T18:36:50.729Z,101328.52
2019-04-10T18:39:24.109Z,101333.66
2019-04-10T18:42:01.291Z,101341.05
2019-04-10T18:44:33.108Z,101343.16
2019-04-10T18:47:04.904Z,101340.51
2019-04-10T18:49:45.833Z,101341.78
2019-04-10T18:52:23.822Z,101345.67
2019-04-10T18:54:57.061Z,101343.02
2019-04-10T18:57:31.290Z,101351.25
2019-04-10T19:00:06.337Z,101345.22
2019-04-10T19:02:45.305Z,101347.74
2019-04-10T19:05:29.928Z,101356.44
2019-04-10T19:08:07.843Z,101354.20
2019-04-10T19:10:43.397Z,101355.52
2019-04-10T19:13:18.960Z,101352.77
2019-04-10T19:15:49.549Z,101352.32
2019-04-10T19:18:21.662Z,101357.59
2019-04-10T19:20:58.685Z,101356.66
2019-04-10T19:23:30.827Z,101357.16
2019-04-10T19:26:11.365Z,101364.47
2019-04-10T19:32:02.149Z,101368.35
2019-04-10T19:34:34.448Z,101363.91
2019-04-10T19:37:10.232Z,101362.97
2019-04-10T19:39:44.617Z,101358.52
2019-04-10T19:42:25.037Z,101364.94
2019-04-10T19:45:03.725Z,101363.70
2019-04-10T19:47:42.222Z,101367.52
2019-04-10T19:50:23.476Z,101365.77
2019-04-10T19:52:57.079Z,101364.81
2019-04-10T19:55:32.624Z,101369.51
2019-04-10T19:58:10.788Z,101370.20
2019-04-10T20:00:57.175Z,101372.34
2019-04-10T20:03:26.134Z,101370.62
2019-04-10T20:06:00.300Z,101369.89
2019-04-10T20:11:55.583Z,101382.14
2019-04-10T20:14:36.768Z,101382.30
2019-04-10T20:17:21.971Z,101390.83
2019-04-10T20:20:02.864Z,101392.44
2019-04-10T20:23:14.155Z,101395.72
2019-04-10T20:28:30.984Z,101401.46
2019-04-10T20:31:01.365Z,101398.44
2019-04-10T20:33:32.538Z,101405.74
2019-04-10T20:36:04.714Z,101404.41
2019-04-10T20:38:35.215Z,101403.94
2019-04-10T20:41:06.493Z,101404.41
2019-04-10T20:43:37.347Z,101406.20
2019-04-10T20:46:07.575Z,101413.20
2019-04-10T20:48:38.351Z,101414.47
2019-04-10T20:51:08.513Z,101416.23
2019-04-10T20:53:40.802Z,101419.58
2019-04-10T20:56:12.860Z,101417.74
2019-04-10T20:58:44.829Z,101416.81
2019-04-10T21:01:14.834Z,101417.16
2019-04-10T21:03:44.808Z,101421.02
2019-04-10T21:06:15.607Z,101420.94
2019-04-10T21:08:46.702Z,101422.11
2019-04-10T21:11:16.784Z,101429.77
2019-04-10T21:13:46.754Z,101431.08
2019-04-10T21:16:17.696Z,101428.38
2019-04-10T21:18:48.295Z,101431.23
2019-04-10T21:21:18.778Z,101436.75
2019-04-10T21:23:48.811Z,101433.98
2019-04-10T21:26:19.797Z,101433.05
2019-04-10T21:28:49.835Z,101444.09
2019-04-10T21:31:30.234Z,101446.08
2019-04-10T21:34:20.191Z,101452.05
2019-04-10T21:36:51.214Z,101448.81
2019-04-10T21:39:21.339Z,101450.37
2019-04-10T21:41:51.432Z,101452.03
2019-04-10T21:44:21.387Z,101461.27
2019-04-10T21:46:51.346Z,101459.50
2019-04-10T21:49:21.923Z,101465.25
2019-04-10T21:51:51.993Z,101461.51
2019-04-10T21:54:22.599Z,101458.59
2019-04-10T21:56:53.520Z,101459.06
2019-04-10T21:59:24.795Z,101456.23
2019-04-10T22:01:55.060Z,101458.21
2019-04-10T22:04:25.272Z,101461.54
2019-04-10T22:07:14.032Z,101457.02
2019-04-10T22:09:45.700Z,101461.75
2019-04-10T22:12:30.627Z,101459.20
2019-04-10T22:14:54.593Z,101459.21
2019-04-10T22:17:24.796Z,101464.91
2019-04-10T22:19:55.037Z,101469.75
2019-04-10T22:22:24.985Z,101469.02
2019-04-10T22:24:54.978Z,101473.95
2019-04-10T22:27:25.550Z,101473.48
2019-04-10T22:29:56.327Z,101478.41
2019-04-10T22:32:26.911Z,101474.88
2019-04-10T22:34:57.037Z,101485.15
2019-04-10T22:37:27.801Z,101482.33
2019-04-10T22:39:58.674Z,101478.80
2019-04-10T22:42:36.646Z,101477.28
2019-04-10T22:45:00.626Z,101479.70
2019-04-10T22:47:31.546Z,101481.17
2019-04-10T22:50:02.947Z,101483.36
2019-04-10T22:52:33.104Z,101478.31
2019-04-10T22:55:03.651Z,101487.02
2019-04-10T22:57:34.810Z,101482.59
2019-04-10T23:00:07.340Z,101481.83
2019-04-10T23:02:37.644Z,101483.93
2019-04-10T23:05:07.752Z,101483.05
2019-04-10T23:07:37.803Z,101481.35
2019-04-10T23:10:13.182Z,101484.09
2019-04-10T23:12:55.959Z,101485.75
2019-04-10T23:15:17.580Z,101485.23
2019-04-10T23:17:48.648Z,101483.43
2019-04-10T23:20:18.818Z,101482.25
2019-04-10T23:22:48.895Z,101490.34
2019-04-10T23:25:18.856Z,101483.81
2019-04-10T23:27:51.924Z,101481.98
2019-04-10T23:30:21.545Z,101483.33
2019-04-10T23:32:51.641Z,101489.69
2019-04-10T23:35:21.639Z,101495.94
2019-04-10T23:37:51.612Z,101493.22
2019-04-10T23:40:21.608Z,101491.69
2019-04-10T23:43:02.705Z,101501.89
2019-04-10T23:45:23.873Z,101501.45
2019-04-10T23:47:54.029Z,101497.35
2019-04-10T23:50:24.030Z,101494.89
2019-04-10T23:52:54.058Z,101499.05
2019-04-10T23:55:24.096Z,101497.98
2019-04-10T23:57:54.141Z,101496.22
